Time;durP1;ratioP1;P1;durP2;ratioP2;P2;SDS_P1;SDS_P2;PMS_P1;PMS_P2;Temp;Humidity;BMP_temperature;BMP_pressure;BME280_temperature;BME280_humidity;BME280_pressure;Samples;Min_cycle;Max_cycle;Signal;HPM_P1;HPM_P2
2023/09/05 00:02:16;;;;;;;4.95;3.58;;;;;;;14.89;91.32;100278.69;5077898;28;20134;-47
2023/09/05 00:04:47;;;;;;;6.28;3.33;;;;;;;14.87;91.18;100278.75;5057209;28;20443;-44
2023/09/05 00:07:14;;;;;;;6.20;3.50;;;;;;;14.84;91.33;100281.50;5070483;28;20036;-47
2023/09/05 00:09:40;;;;;;;5.05;3.47;;;;;;;14.86;91.45;100281.47;5073268;28;20397;-45
2023/09/05 00:12:06;;;;;;;8.00;3.80;;;;;;;14.85;91.05;100288.47;5053944;28;20090;-45
2023/09/05 00:14:33;;;;;;;4.90;3.47;;;;;;;14.83;91.40;100279.81;5050734;28;20047;-44
2023/09/05 00:16:58;;;;;;;5.95;3.55;;;;;;;14.73;91.34;100266.25;5059181;28;20151;-47
2023/09/05 00:19:24;;;;;;;4.88;3.25;;;;;;;14.63;91.64;100259.72;5069867;28;20131;-45
2023/09/05 00:21:50;;;;;;;5.85;3.45;;;;;;;14.76;91.56;100283.59;5079896;28;20539;-47
2023/09/05 00:24:24;;;;;;;4.40;3.60;;;;;;;14.78;91.90;100294.84;5077516;28;20089;-47
2023/09/05 00:26:50;;;;;;;6.10;3.33;;;;;;;14.64;91.61;100266.66;5074469;28;20032;-50
2023/09/05 00:29:19;;;;;;;4.30;3.03;;;;;;;14.63;91.70;100271.94;5069846;28;20036;-48
2023/09/05 00:31:46;;;;;;;11.85;3.53;;;;;;;14.77;91.29;100293.16;5074117;28;20032;-42
2023/09/05 00:34:13;;;;;;;6.05;3.13;;;;;;;14.76;91.61;100286.19;5073404;28;20041;-44
2023/09/05 00:36:40;;;;;;;4.38;3.20;;;;;;;14.77;91.40;100290.53;5061383;28;20047;-48
2023/09/05 00:39:06;;;;;;;6.20;3.25;;;;;;;14.75;91.83;100287.16;5076063;28;20036;-48
2023/09/05 00:41:35;;;;;;;4.60;3.08;;;;;;;14.75;91.72;100287.16;5051320;28;20044;-47
2023/09/05 00:44:01;;;;;;;9.35;3.13;;;;;;;14.75;91.58;100287.16;5054720;28;20044;-45
2023/09/05 00:46:31;;;;;;;5.25;2.97;;;;;;;14.74;91.80;100290.66;5057503;28;20130;-45
2023/09/05 00:48:57;;;;;;;6.53;2.85;;;;;;;14.54;91.64;100254.88;5048319;28;20043;-44
2023/09/05 00:51:25;;;;;;;5.93;3.08;;;;;;;14.72;91.75;100282.88;5072763;28;20424;-44
2023/09/05 00:53:51;;;;;;;5.75;3.05;;;;;;;14.72;91.76;100285.50;5073486;28;20602;-43
2023/09/05 00:56:17;;;;;;;5.32;2.70;;;;;;;14.71;92.00;100288.16;5075425;28;20041;-49
2023/09/05 00:58:44;;;;;;;6.05;3.00;;;;;;;14.69;91.92;100280.41;5057144;28;20039;-48
2023/09/05 01:01:10;;;;;;;3.78;3.05;;;;;;;14.69;91.89;100293.47;5073801;28;20526;-45
2023/09/05 01:03:36;;;;;;;7.40;3.22;;;;;;;14.69;91.93;100284.78;5070452;28;20059;-45
2023/09/05 01:06:06;;;;;;;5.50;2.58;;;;;;;14.67;92.11;100284.84;5071813;28;20055;-46
2023/09/05 01:08:40;;;;;;;4.85;2.72;;;;;;;14.68;92.23;100286.53;5054273;28;20045;-48
2023/09/05 01:11:11;;;;;;;4.35;2.88;;;;;;;14.66;91.72;100292.75;5078182;28;20052;-45
2023/09/05 01:13:38;;;;;;;5.22;2.83;;;;;;;14.64;91.85;100284.13;5073724;28;20065;-49
2023/09/05 01:16:04;;;;;;;4.00;2.50;;;;;;;14.34;91.80;100239.09;5073960;28;20042;-46
2023/09/05 01:18:33;;;;;;;5.85;2.70;;;;;;;14.62;92.43;100285.94;5052195;28;20498;-48
2023/09/05 01:21:18;;;;;;;5.68;2.72;;;;;;;14.62;92.32;100291.16;5056072;28;20032;-46
2023/09/05 01:23:58;;;;;;;5.22;2.70;;;;;;;14.61;92.31;100286.84;5073873;28;20066;-47
2023/09/05 01:26:24;;;;;;;4.00;2.72;;;;;;;14.47;92.09;100265.63;5073764;28;20041;-43
2023/09/05 01:28:52;;;;;;;6.43;3.10;;;;;;;14.64;92.18;100294.59;5073415;28;20048;-44
2023/09/05 01:31:18;;;;;;;3.78;2.60;;;;;;;14.55;91.95;100285.31;5063786;28;20048;-45
2023/09/05 01:33:44;;;;;;;5.80;2.72;;;;;;;14.57;92.17;100306.22;5075612;28;20093;-45
2023/09/05 01:36:09;;;;;;;5.72;3.00;;;;;;;14.50;91.96;100291.69;5077570;28;20044;-44
2023/09/05 01:38:35;;;;;;;8.30;3.03;;;;;;;14.46;92.08;100298.78;5064499;28;20036;-49
2023/09/05 01:41:01;;;;;;;5.60;2.58;;;;;;;14.39;92.13;100284.28;5077597;28;20135;-45
2023/09/05 01:43:27;;;;;;;3.60;2.72;;;;;;;14.36;92.51;100293.09;5081004;28;20040;-48
2023/09/05 01:45:53;;;;;;;7.22;3.03;;;;;;;14.33;92.89;100293.19;5077749;28;20093;-47
2023/09/05 01:48:19;;;;;;;5.68;2.88;;;;;;;14.30;92.70;100300.28;5076447;28;20044;-43
2023/09/05 01:50:45;;;;;;;3.70;2.67;;;;;;;14.29;93.05;100293.34;5080652;28;20131;-45
2023/09/05 01:53:11;;;;;;;5.25;2.88;;;;;;;14.25;93.49;100290.00;5043784;28;20053;-48
2023/09/05 01:55:36;;;;;;;5.15;2.88;;;;;;;14.21;93.55;100283.19;5077358;28;20048;-44
2023/09/05 01:58:02;;;;;;;4.82;2.45;;;;;;;14.08;93.40;100266.28;5055982;28;20123;-44
2023/09/05 02:00:28;;;;;;;4.85;3.38;;;;;;;14.21;93.73;100293.66;5056035;28;20428;-50
2023/09/05 02:02:54;;;;;;;3.80;2.58;;;;;;;14.19;93.80;100294.63;5078728;28;20048;-46
2023/09/05 02:05:20;;;;;;;5.32;3.30;;;;;;;14.18;94.20;100299.03;5050152;28;20121;-46
2023/09/05 02:07:46;;;;;;;4.60;2.75;;;;;;;14.19;94.26;100299.84;5072018;28;20500;-45
2023/09/05 02:10:12;;;;;;;4.80;3.35;;;;;;;14.15;94.46;100299.13;5083182;28;20048;-42
2023/09/05 02:12:38;;;;;;;4.30;3.22;;;;;;;14.15;94.45;100301.75;5076699;28;20067;-45
2023/09/05 02:15:04;;;;;;;7.38;3.40;;;;;;;14.14;94.71;100302.66;5062645;28;20048;-47
2023/09/05 02:17:33;;;;;;;7.47;3.20;;;;;;;14.12;94.86;100303.63;5070030;28;20048;-48
2023/09/05 02:19:59;;;;;;;6.70;3.42;;;;;;;13.94;94.80;100281.66;5059279;28;20040;-44
2023/09/05 02:22:24;;;;;;;4.32;3.50;;;;;;;14.08;95.03;100307.28;5061177;28;20503;-46
2023/09/05 02:24:50;;;;;;;7.50;3.60;;;;;;;14.08;95.14;100300.28;5042049;28;20086;-43
2023/09/05 02:27:18;;;;;;;6.05;3.55;;;;;;;14.08;95.18;100302.06;5071901;28;20508;-44
2023/09/05 02:29:49;;;;;;;6.22;3.72;;;;;;;14.09;95.34;100308.97;5067782;28;20117;-45
2023/09/05 02:32:17;;;;;;;5.60;3.75;;;;;;;14.09;95.56;100299.34;5078231;28;20045;-44
2023/09/05 02:34:49;;;;;;;5.80;3.30;;;;;;;14.11;95.68;100297.56;5078098;28;20046;-45
2023/09/05 02:37:15;;;;;;;5.93;3.55;;;;;;;14.10;95.93;100297.59;5076667;28;20046;-47
2023/09/05 02:39:41;;;;;;;6.30;3.10;;;;;;;14.12;95.99;100307.09;5077995;28;20032;-49
2023/09/05 02:42:07;;;;;;;5.18;3.75;;;;;;;14.12;95.97;100314.09;5064796;28;20058;-44
2023/09/05 02:44:32;;;;;;;8.75;3.88;;;;;;;14.10;96.21;100310.69;5075278;28;20033;-44
2023/09/05 02:46:58;;;;;;;5.78;3.70;;;;;;;14.08;96.00;100312.53;5077098;28;20047;-46
2023/09/05 02:49:24;;;;;;;5.05;3.38;;;;;;;14.07;96.01;100311.66;5060021;28;20527;-43
2023/09/05 02:51:50;;;;;;;5.78;3.47;;;;;;;14.06;96.25;100314.31;5079888;28;20052;-44
2023/09/05 02:54:15;;;;;;;5.85;3.67;;;;;;;14.06;96.36;100319.56;5078945;28;20488;-44
2023/09/05 02:56:41;;;;;;;10.80;3.40;;;;;;;14.10;96.31;100319.38;5057853;28;20126;-45
2023/09/05 02:59:07;;;;;;;6.18;3.33;;;;;;;14.11;96.32;100315.00;5064764;28;20167;-43
2023/09/05 03:01:33;;;;;;;5.15;3.30;;;;;;;14.13;96.29;100319.25;5053700;28;20132;-44
2023/09/05 03:03:59;;;;;;;6.65;4.65;;;;;;;14.16;96.16;100310.44;5076592;28;20096;-43
2023/09/05 03:06:24;;;;;;;7.32;4.25;;;;;;;14.16;96.13;100315.69;5073056;28;20041;-43
2023/09/05 03:08:53;;;;;;;9.30;4.40;;;;;;;14.01;95.93;100290.97;5070722;28;20521;-45
2023/09/05 03:11:20;;;;;;;5.40;3.92;;;;;;;14.14;95.91;100323.56;5078164;28;20044;-45
2023/09/05 03:13:47;;;;;;;8.65;4.18;;;;;;;14.12;95.85;100328.03;5054767;28;20075;-44
2023/09/05 03:16:14;;;;;;;5.38;4.10;;;;;;;14.10;95.83;100319.38;5073771;28;20587;-46
2023/09/05 03:18:44;;;;;;;8.27;4.22;;;;;;;13.95;95.87;100291.22;5062321;28;20040;-43
2023/09/05 03:21:10;;;;;;;8.35;4.60;;;;;;;14.12;95.89;100319.31;5050983;28;20033;-44
2023/09/05 03:23:36;;;;;;;10.50;4.80;;;;;;;14.12;96.25;100324.56;5051327;28;20094;-45
2023/09/05 03:26:02;;;;;;;6.65;4.20;;;;;;;13.92;96.27;100294.78;5067262;28;20036;-46
2023/09/05 03:28:43;;;;;;;6.18;3.83;;;;;;;14.13;96.24;100329.72;5067442;28;20092;-46
2023/09/05 03:31:20;;;;;;;7.70;3.83;;;;;;;14.14;96.10;100334.03;5080845;28;20097;-44
2023/09/05 03:33:47;;;;;;;6.35;3.83;;;;;;;14.17;96.57;100318.25;5052806;28;20478;-45
2023/09/05 03:36:14;;;;;;;7.68;3.80;;;;;;;14.21;96.11;100321.56;5070303;28;20473;-46
2023/09/05 03:38:40;;;;;;;7.78;3.83;;;;;;;14.24;96.56;100324.91;5072481;28;20044;-45
2023/09/05 03:41:05;;;;;;;8.00;4.18;;;;;;;14.17;96.33;100306.91;5055718;28;20140;-43
2023/09/05 03:43:32;;;;;;;6.85;3.75;;;;;;;14.04;95.96;100279.53;5075424;28;20565;-44
2023/09/05 03:45:57;;;;;;;5.68;4.03;;;;;;;14.34;96.33;100320.19;5057235;28;20036;-47
2023/09/05 03:48:23;;;;;;;6.60;3.90;;;;;;;14.37;95.96;100320.09;5071939;28;20044;-47
2023/09/05 03:50:49;;;;;;;7.20;3.15;;;;;;;14.40;95.69;100328.66;5068447;28;20040;-49
2023/09/05 03:53:15;;;;;;;7.40;3.65;;;;;;;14.29;95.70;100303.81;5079057;28;20504;-46
2023/09/05 03:55:42;;;;;;;7.25;4.22;;;;;;;14.44;95.43;100320.72;5058317;28;20090;-46
2023/09/05 03:58:08;;;;;;;9.88;3.63;;;;;;;14.54;95.23;100333.38;5049429;28;20432;-47
2023/09/05 04:00:34;;;;;;;6.03;4.47;;;;;;;14.40;94.95;100299.03;5079932;28;20051;-46
2023/09/05 04:03:04;;;;;;;7.03;3.60;;;;;;;14.32;94.80;100280.16;5052079;28;20178;-44
2023/09/05 04:05:32;;;;;;;6.03;3.67;;;;;;;14.67;94.86;100333.69;5067926;28;20072;-44
2023/09/05 04:07:58;;;;;;;8.82;3.78;;;;;;;14.69;94.68;100322.28;5075071;28;20047;-45
2023/09/05 04:10:23;;;;;;;7.90;4.13;;;;;;;14.75;94.39;100326.41;5076660;28;20478;-46
2023/09/05 04:12:50;;;;;;;7.32;4.03;;;;;;;14.80;93.95;100324.44;5079559;28;20075;-45
2023/09/05 04:15:20;;;;;;;11.40;3.72;;;;;;;14.87;94.09;100338.13;5070930;28;20042;-45
2023/09/05 04:17:47;;;;;;;9.98;4.15;;;;;;;14.92;93.72;100330.91;5073099;28;20044;-49
2023/09/05 04:20:13;;;;;;;4.75;3.30;;;;;;;14.88;93.60;100308.41;5076010;28;20047;-44
2023/09/05 04:22:39;;;;;;;4.18;3.15;;;;;;;15.04;93.22;100328.66;5068640;28;20044;-45
2023/09/05 04:25:08;;;;;;;6.32;3.83;;;;;;;14.92;92.47;100308.22;5058065;28;20511;-48
2023/09/05 04:27:36;;;;;;;6.60;3.55;;;;;;;15.00;92.66;100306.13;5077022;28;20553;-43
2023/09/05 04:30:03;;;;;;;7.25;3.97;;;;;;;15.13;91.92;100323.00;5062580;28;20459;-44
2023/09/05 04:32:31;;;;;;;;;;;;;;;15.25;91.51;100335.59;5079000;28;20036;-44
2023/09/05 04:34:59;;;;;;;7.25;3.97;;;;;;;15.26;91.24;100325.97;5060315;28;19912;-44
2023/09/05 04:37:27;;;;;;;10.40;4.55;;;;;;;15.35;91.20;100324.72;5075038;28;20099;-46
2023/09/05 04:39:58;;;;;;;10.85;4.88;;;;;;;15.43;90.60;100336.56;5064215;28;20052;-45
2023/09/05 04:42:25;;;;;;;6.90;4.25;;;;;;;15.50;90.14;100337.13;5075468;28;20786;-46
2023/09/05 04:44:51;;;;;;;7.32;3.90;;;;;;;15.59;89.93;100334.16;5062078;28;20048;-47
2023/09/05 04:47:28;;;;;;;8.77;3.72;;;;;;;15.65;89.62;100337.34;5081690;28;20031;-46
2023/09/05 04:49:56;;;;;;;4.85;3.53;;;;;;;15.75;88.87;100335.19;5078960;28;20062;-45
2023/09/05 04:52:26;;;;;;;5.93;3.40;;;;;;;15.84;88.18;100331.28;5066279;28;20127;-45
2023/09/05 04:54:54;;;;;;;9.75;3.83;;;;;;;15.66;87.95;100291.00;5076628;28;20106;-46
2023/09/05 04:57:20;;;;;;;6.18;3.97;;;;;;;16.02;88.06;100333.03;5061653;28;20229;-46
2023/09/05 04:59:48;;;;;;;9.88;4.05;;;;;;;16.09;87.56;100340.56;5074885;28;20135;-47
2023/09/05 05:02:15;;;;;;;9.07;4.47;;;;;;;16.18;87.07;100336.66;5061947;28;20093;-48
2023/09/05 05:04:45;;;;;;;6.50;3.97;;;;;;;16.01;86.36;100306.00;5059637;28;20129;-46
2023/09/05 05:07:11;;;;;;;10.25;3.85;;;;;;;16.36;85.20;100343.69;5061894;28;20254;-44
2023/09/05 05:09:39;;;;;;;5.18;3.33;;;;;;;16.31;84.53;100313.31;5082126;28;20039;-49
2023/09/05 05:12:06;;;;;;;7.05;3.80;;;;;;;16.55;83.61;100335.75;5078165;28;20464;-44
2023/09/05 05:14:32;;;;;;;7.15;3.63;;;;;;;16.67;82.85;100343.09;5064757;28;20076;-44
2023/09/05 05:16:58;;;;;;;9.65;4.60;;;;;;;16.79;81.93;100342.50;5081133;28;20071;-44
2023/09/05 05:19:24;;;;;;;9.43;4.55;;;;;;;16.66;81.48;100290.63;5077319;28;20131;-47
2023/09/05 05:21:50;;;;;;;10.68;4.95;;;;;;;17.05;80.87;100342.97;5075652;28;20040;-45
2023/09/05 05:24:16;;;;;;;6.82;4.40;;;;;;;17.17;80.20;100339.69;5065204;28;20114;-46
2023/09/05 05:26:43;;;;;;;12.60;6.50;;;;;;;17.16;79.72;100314.38;5047221;28;20040;-44
2023/09/05 05:29:09;;;;;;;25.23;12.75;;;;;;;17.42;79.35;100340.16;5046916;28;20067;-47
2023/09/05 05:31:35;;;;;;;15.40;7.43;;;;;;;17.57;78.75;100349.88;5066670;28;20043;-45
2023/09/05 05:34:01;;;;;;;9.82;4.70;;;;;;;17.67;78.05;100348.50;5048060;28;20048;-47
2023/09/05 05:36:29;;;;;;;12.98;7.47;;;;;;;17.77;77.20;100346.22;5069441;28;20090;-51
2023/09/05 05:39:03;;;;;;;10.68;5.22;;;;;;;17.85;75.94;100346.63;5074856;28;20055;-46
2023/09/05 05:41:30;;;;;;;8.55;3.90;;;;;;;17.99;75.16;100343.28;5063201;28;20075;-49
2023/09/05 05:43:56;;;;;;;5.45;3.17;;;;;;;18.10;74.36;100341.78;5072179;28;20100;-44
2023/09/05 05:46:21;;;;;;;10.35;3.70;;;;;;;18.32;73.37;100341.41;5081227;28;20040;-45
2023/09/05 05:48:47;;;;;;;7.97;4.00;;;;;;;18.46;72.12;100336.25;5073535;28;20045;-44
2023/09/05 05:51:14;;;;;;;7.20;3.50;;;;;;;18.66;71.09;100340.41;5074412;28;20043;-46
2023/09/05 05:53:42;;;;;;;6.45;3.28;;;;;;;18.91;70.36;100345.09;5060447;28;20052;-47
2023/09/05 05:56:10;;;;;;;6.47;3.22;;;;;;;19.01;69.15;100309.38;5075573;28;20095;-48
2023/09/05 05:58:36;;;;;;;7.75;3.70;;;;;;;19.60;67.61;100342.72;5077666;28;20135;-46
2023/09/05 06:01:02;;;;;;;9.75;3.70;;;;;;;20.18;65.68;100331.19;5074090;28;20401;-47
2023/09/05 06:03:28;;;;;;;9.25;3.75;;;;;;;20.95;63.81;100333.19;5079920;28;20045;-45
2023/09/05 06:05:57;;;;;;;4.90;2.45;;;;;;;21.73;61.59;100334.00;5069995;28;20094;-48
2023/09/05 06:08:22;;;;;;;3.72;2.40;;;;;;;22.61;59.19;100338.28;5069771;28;20531;-47
2023/09/05 06:10:49;;;;;;;4.13;2.65;;;;;;;23.45;56.70;100338.94;5051701;28;20044;-46
2023/09/05 06:13:15;;;;;;;5.78;2.67;;;;;;;24.25;54.94;100333.53;5072305;28;20123;-47
2023/09/05 06:15:41;;;;;;;3.85;2.35;;;;;;;25.12;53.08;100329.88;5072680;28;20127;-45
2023/09/05 06:18:11;;;;;;;3.03;1.73;;;;;;;25.97;49.94;100333.13;5071744;28;20161;-46
2023/09/05 06:20:37;;;;;;;3.70;1.75;;;;;;;26.80;47.45;100324.75;5067987;28;20572;-46
2023/09/05 06:23:04;;;;;;;4.10;2.88;;;;;;;27.52;45.34;100324.28;5054877;28;20043;-49
2023/09/05 06:25:30;;;;;;;4.32;1.90;;;;;;;28.36;43.74;100317.03;5081696;28;20032;-44
2023/09/05 06:27:57;;;;;;;4.07;1.90;;;;;;;29.17;41.46;100329.31;5076325;28;20093;-46
2023/09/05 06:30:23;;;;;;;6.15;2.15;;;;;;;29.96;39.78;100331.84;5075188;28;20071;-47
2023/09/05 06:32:49;;;;;;;5.32;2.00;;;;;;;30.67;38.14;100339.47;5071178;28;20095;-48
2023/09/05 06:35:16;;;;;;;3.95;2.08;;;;;;;31.23;36.59;100311.78;5066278;28;20515;-48
2023/09/05 06:37:42;;;;;;;4.35;1.52;;;;;;;31.95;35.39;100326.91;5082140;28;20047;-47
2023/09/05 06:40:12;;;;;;;3.35;1.90;;;;;;;32.57;34.13;100326.94;5074488;28;20050;-48
2023/09/05 06:42:42;;;;;;;3.15;1.65;;;;;;;33.16;32.62;100329.84;5078335;28;20090;-49
2023/09/05 06:45:09;;;;;;;3.67;1.92;;;;;;;33.79;31.43;100326.72;5061046;28;20068;-45
2023/09/05 06:47:35;;;;;;;3.17;1.95;;;;;;;34.51;30.19;100324.09;5081855;28;20046;-46
2023/09/05 06:50:05;;;;;;;3.10;2.13;;;;;;;35.27;29.02;100317.16;5062694;28;20052;-47
2023/09/05 06:52:31;;;;;;;4.13;2.40;;;;;;;35.81;28.99;100319.97;5060890;28;20097;-46
2023/09/05 06:54:57;;;;;;;6.50;3.25;;;;;;;36.23;27.97;100316.22;5054481;28;20040;-47
2023/09/05 06:57:24;;;;;;;7.85;3.47;;;;;;;36.64;27.01;100299.06;5074270;28;20052;-48
2023/09/05 06:59:50;;;;;;;6.70;3.20;;;;;;;37.22;26.32;100321.81;5066543;28;20040;-47
2023/09/05 07:02:16;;;;;;;5.18;2.25;;;;;;;37.64;25.71;100309.66;5065965;28;20051;-44
2023/09/05 07:04:42;;;;;;;3.88;2.17;;;;;;;38.27;24.56;100307.13;5040929;28;20572;-45
2023/09/05 07:07:08;;;;;;;18.10;2.80;;;;;;;38.15;24.11;100307.84;5067288;28;20041;-48
2023/09/05 07:09:34;;;;;;;6.60;2.45;;;;;;;38.61;24.16;100303.19;5060973;28;20063;-47
2023/09/05 07:12:01;;;;;;;8.88;2.72;;;;;;;38.98;23.55;100305.88;5080986;28;20073;-43
2023/09/05 07:14:27;;;;;;;8.07;2.47;;;;;;;39.36;22.96;100307.66;5064794;28;20070;-46
2023/09/05 07:16:53;;;;;;;2.47;2.20;;;;;;;39.51;22.83;100310.84;5062764;28;20040;-45
2023/09/05 07:19:19;;;;;;;2.33;2.10;;;;;;;39.64;22.14;100304.38;5062208;28;20044;-47
2023/09/05 07:21:45;;;;;;;4.25;2.50;;;;;;;39.96;21.77;100286.00;5069376;28;20400;-46
2023/09/05 07:24:13;;;;;;;4.07;2.50;;;;;;;40.53;21.74;100306.41;5073319;28;20109;-44
2023/09/05 07:26:39;;;;;;;5.85;2.13;;;;;;;40.85;20.98;100296.91;5078446;28;20117;-48
2023/09/05 07:29:06;;;;;;;9.00;2.42;;;;;;;41.05;20.97;100288.41;5074760;28;20055;-49
2023/09/05 07:31:32;;;;;;;2.03;1.73;;;;;;;41.20;19.59;100296.94;5069796;28;20119;-45
2023/09/05 07:33:58;;;;;;;4.57;2.67;;;;;;;41.19;19.74;100259.81;5078031;28;20039;-48
2023/09/05 07:36:24;;;;;;;3.38;2.50;;;;;;;41.90;19.37;100299.63;5069486;28;20049;-46
2023/09/05 07:38:50;;;;;;;4.00;2.10;;;;;;;42.13;19.32;100283.16;5075001;28;20048;-51
2023/09/05 07:41:16;;;;;;;3.10;2.10;;;;;;;41.89;18.94;100281.56;5078469;28;20043;-45
2023/09/05 07:43:42;;;;;;;6.00;2.50;;;;;;;42.27;19.19;100281.75;5080374;28;20044;-47
2023/09/05 07:46:10;;;;;;;4.43;2.10;;;;;;;42.23;18.85;100280.59;5076901;28;20035;-47
2023/09/05 07:48:37;;;;;;;2.40;2.20;;;;;;;42.21;18.42;100273.72;5076868;28;20050;-45
2023/09/05 07:51:04;;;;;;;5.18;2.13;;;;;;;42.31;17.95;100273.09;5058900;28;20051;-47
2023/09/05 07:53:32;;;;;;;;;;;;;;;42.19;18.43;100273.09;5077130;28;20047;-44
2023/09/05 07:55:58;;;;;;;2.70;2.50;;;;;;;42.12;18.40;100254.16;5058457;28;19920;-50
2023/09/05 07:58:25;;;;;;;4.28;2.60;;;;;;;41.99;18.44;100239.94;5068427;28;20064;-47
2023/09/05 08:00:53;;;;;;;6.35;2.55;;;;;;;42.31;18.19;100271.19;5065615;28;20061;-48
2023/09/05 08:03:27;;;;;;;4.32;2.15;;;;;;;41.85;18.17;100253.88;5065829;28;20052;-49
2023/09/05 08:05:54;;;;;;;6.30;2.20;;;;;;;41.47;18.13;100253.63;5062039;28;20063;-49
2023/09/05 08:08:20;;;;;;;2.08;1.88;;;;;;;40.86;18.82;100252.19;5069505;28;20044;-44
2023/09/05 08:10:46;;;;;;;4.23;2.43;;;;;;;40.39;19.05;100250.44;5029103;28;20041;-47
2023/09/05 08:13:14;;;;;;;5.35;2.67;;;;;;;40.57;19.44;100251.16;5073351;28;20040;-48
2023/09/05 08:15:43;;;;;;;5.95;2.50;;;;;;;40.67;19.49;100244.34;5065259;28;20044;-46
2023/09/05 08:18:11;;;;;;;7.30;2.65;;;;;;;41.27;19.29;100253.16;5068172;28;20051;-44
2023/09/05 08:20:39;;;;;;;6.93;2.50;;;;;;;41.75;18.65;100247.38;5070734;28;20040;-45
2023/09/05 08:23:05;;;;;;;7.88;3.40;;;;;;;41.90;18.31;100244.97;5063058;28;20040;-45
2023/09/05 08:25:31;;;;;;;3.43;2.17;;;;;;;42.05;18.08;100244.44;5076977;28;20494;-49
2023/09/05 08:27:57;;;;;;;6.15;2.45;;;;;;;42.07;18.51;100240.41;5074957;28;20041;-45
2023/09/05 08:30:28;;;;;;;9.20;3.20;;;;;;;42.34;18.68;100223.41;5082674;28;20041;-49
2023/09/05 08:32:55;;;;;;;24.02;4.07;;;;;;;42.76;17.74;100237.53;5073824;28;20460;-46
2023/09/05 08:35:22;;;;;;;2.80;2.60;;;;;;;42.79;17.42;100215.13;5076784;28;20202;-46
2023/09/05 08:37:48;;;;;;;3.23;2.30;;;;;;;41.95;17.98;100231.41;5058060;28;20044;-46
2023/09/05 08:40:15;;;;;;;8.32;2.63;;;;;;;39.29;19.79;100222.47;5067169;28;20091;-46
2023/09/05 08:42:42;;;;;;;;;;;;;;;39.50;19.85;100223.94;5075287;28;20044;-44
2023/09/05 08:45:11;;;;;;;7.47;2.47;;;;;;;39.95;19.30;100221.69;5068409;28;19954;-49
2023/09/05 08:47:38;;;;;;;4.97;1.83;;;;;;;40.85;18.62;100225.97;5062010;28;20056;-43
2023/09/05 08:50:06;;;;;;;4.72;2.45;;;;;;;41.99;18.18;100226.28;5066779;28;20052;-44
2023/09/05 08:52:33;;;;;;;4.78;2.40;;;;;;;42.71;17.75;100226.50;5059542;28;20207;-51
2023/09/05 08:54:59;;;;;;;6.80;2.58;;;;;;;42.53;16.96;100214.69;5052577;28;20044;-47
2023/09/05 08:57:26;;;;;;;4.78;2.38;;;;;;;42.49;16.61;100218.19;5051929;28;20108;-46
2023/09/05 08:59:53;;;;;;;7.55;2.30;;;;;;;43.27;16.60;100225.44;5076444;28;20053;-47
2023/09/05 09:02:19;;;;;;;5.30;2.60;;;;;;;44.10;16.08;100219.59;5059623;28;20048;-49
2023/09/05 09:04:53;;;;;;;2.95;2.53;;;;;;;43.34;15.67;100209.66;5063654;28;20114;-51
2023/09/05 09:07:24;;;;;;;4.05;2.47;;;;;;;43.17;16.26;100219.81;5051680;28;20033;-47
2023/09/05 09:09:50;;;;;;;3.00;2.70;;;;;;;43.46;16.18;100216.63;5068988;28;20040;-47
2023/09/05 09:12:16;;;;;;;3.88;1.90;;;;;;;42.32;16.48;100225.53;5076992;28;20036;-45
2023/09/05 09:14:43;;;;;;;4.82;2.42;;;;;;;39.25;18.66;100207.66;5071570;28;20401;-47
2023/09/05 09:17:09;;;;;;;2.97;2.28;;;;;;;39.70;18.96;100203.56;5083808;28;20063;-43
2023/09/05 09:19:37;;;;;;;3.28;2.10;;;;;;;40.05;18.27;100186.56;5070322;28;20523;-50
2023/09/05 09:22:03;;;;;;;6.00;2.60;;;;;;;40.57;17.70;100183.00;5064072;28;20504;-45
2023/09/05 09:24:37;;;;;;;4.13;2.35;;;;;;;40.71;17.78;100204.63;5066447;28;20040;-48
2023/09/05 09:27:04;;;;;;;3.83;2.25;;;;;;;41.69;16.45;100194.53;5057656;28;20492;-46
2023/09/05 09:29:31;;;;;;;5.72;2.47;;;;;;;42.35;16.35;100209.47;5073010;28;20096;-45
2023/09/05 09:32:06;;;;;;;7.45;2.47;;;;;;;43.17;15.50;100214.34;5071235;28;20091;-55
2023/09/05 09:34:35;;;;;;;4.93;2.80;;;;;;;43.61;15.18;100202.31;5067785;28;20052;-48
2023/09/05 09:37:01;;;;;;;5.25;2.40;;;;;;;43.66;15.11;100204.28;5072644;28;20086;-46
2023/09/05 09:39:33;;;;;;;3.75;2.60;;;;;;;43.79;14.82;100201.97;5070077;28;20051;-43
2023/09/05 09:42:00;;;;;;;3.67;2.70;;;;;;;43.56;15.06;100201.44;5069248;28;20050;-48
2023/09/05 09:44:32;;;;;;;3.00;2.60;;;;;;;43.81;15.08;100208.00;5078920;28;20067;-51
2023/09/05 09:47:00;;;;;;;9.40;7.20;;;;;;;43.80;15.36;100194.59;5060980;28;20045;-47
2023/09/05 09:49:28;;;;;;;3.65;2.60;;;;;;;44.26;14.93;100193.13;5076244;28;20051;-46
2023/09/05 09:52:03;;;;;;;3.53;2.90;;;;;;;44.94;14.75;100194.22;5076497;28;20508;-42
2023/09/05 09:54:39;;;;;;;5.43;3.80;;;;;;;45.29;14.84;100199.94;5033433;28;20048;-45
2023/09/05 09:57:05;;;;;;;6.68;3.38;;;;;;;45.38;14.24;100192.81;5079991;28;20112;-47
2023/09/05 09:59:36;;;;;;;3.38;3.08;;;;;;;45.42;13.29;100199.47;5074390;28;20076;-46
2023/09/05 10:02:09;;;;;;;5.57;3.15;;;;;;;45.69;13.22;100171.81;5056268;28;20044;-48
2023/09/05 10:04:35;;;;;;;6.15;3.20;;;;;;;46.13;13.16;100193.31;5063289;28;20052;-47
2023/09/05 10:07:03;;;;;;;6.35;3.28;;;;;;;46.13;13.05;100183.16;5071507;28;20077;-50
2023/09/05 10:09:32;;;;;;;5.82;3.15;;;;;;;46.09;12.79;100179.31;5084077;28;20046;-50
2023/09/05 10:12:01;;;;;;;5.10;3.20;;;;;;;46.13;12.80;100182.31;5075282;28;20044;-52
2023/09/05 10:14:31;;;;;;;3.63;3.08;;;;;;;45.62;12.66;100153.91;5078726;28;20206;-53
2023/09/05 10:16:58;;;;;;;4.20;3.13;;;;;;;45.30;12.96;100176.03;5062434;28;20055;-48
2023/09/05 10:19:31;;;;;;;4.07;3.50;;;;;;;45.84;13.08;100165.53;5064525;28;20035;-48
2023/09/05 10:21:58;;;;;;;15.13;4.60;;;;;;;45.85;13.12;100170.75;5080237;28;20127;-51
2023/09/05 10:24:31;;;;;;;6.68;3.42;;;;;;;46.04;13.18;100167.47;5048118;28;20048;-47
2023/09/05 10:26:58;;;;;;;6.70;3.30;;;;;;;45.96;13.18;100161.41;5079930;28;20035;-49
2023/09/05 10:29:33;;;;;;;12.20;4.60;;;;;;;45.91;13.37;100161.41;5069267;28;20539;-49
2023/09/05 10:32:01;;;;;;;4.65;3.53;;;;;;;45.99;13.39;100165.56;5073255;28;20148;-54
2023/09/05 10:34:45;;;;;;;7.18;3.72;;;;;;;45.99;13.36;100161.97;5046808;28;20051;-49
2023/09/05 10:37:17;;;;;;;3.85;3.13;;;;;;;45.80;13.37;100158.94;5076214;28;20135;-51
2023/09/05 10:40:02;;;;;;;7.25;3.50;;;;;;;45.81;13.20;100155.91;5073667;28;20109;-50
2023/09/05 10:42:33;;;;;;;6.07;3.00;;;;;;;43.28;14.12;100134.00;5060882;28;20063;-48
2023/09/05 10:45:15;;;;;;;4.50;3.15;;;;;;;43.47;14.17;100152.56;5088775;28;20075;-51
2023/09/05 10:47:41;;;;;;;3.67;3.30;;;;;;;43.91;13.95;100147.06;5076769;28;20034;-51
2023/09/05 10:50:08;;;;;;;5.18;3.03;;;;;;;45.02;13.18;100144.28;5063581;28;20048;-45
2023/09/05 10:52:35;;;;;;;13.35;4.35;;;;;;;45.79;13.45;100146.25;5065954;28;20032;-52
2023/09/05 10:55:29;;;;;;;6.00;3.90;;;;;;;46.34;12.99;100154.56;5059702;28;20060;-51
2023/09/05 10:57:59;;;;;;;4.57;3.92;;;;;;;46.68;12.41;100146.56;5069010;28;20279;-50
2023/09/05 11:00:28;;;;;;;6.22;3.80;;;;;;;47.02;12.42;100134.91;5063473;28;20557;-49
2023/09/05 11:03:09;;;;;;;8.55;3.53;;;;;;;47.22;11.90;100140.31;5072779;28;20036;-50
2023/09/05 11:05:35;;;;;;;4.88;3.38;;;;;;;46.78;12.09;100137.47;5062679;28;20431;-51
2023/09/05 11:08:01;;;;;;;4.60;3.87;;;;;;;46.67;12.36;100130.31;5075013;28;20043;-48
2023/09/05 11:10:39;;;;;;;4.23;3.37;;;;;;;47.00;11.86;100126.94;5077340;28;20417;-49
2023/09/05 11:13:14;;;;;;;10.75;3.55;;;;;;;46.76;11.81;100137.72;5068239;28;20076;-50
2023/09/05 11:15:43;;;;;;;3.47;3.17;;;;;;;44.61;12.61;100121.28;5073300;28;20032;-50
2023/09/05 11:18:12;;;;;;;7.05;3.25;;;;;;;43.74;13.33;100113.41;5050066;28;20076;-51
2023/09/05 11:20:43;;;;;;;4.65;3.10;;;;;;;43.90;13.49;100113.34;5064744;28;20072;-50
2023/09/05 11:23:25;;;;;;;3.53;3.22;;;;;;;43.94;13.04;100107.31;5081357;28;20036;-52
2023/09/05 11:25:53;;;;;;;4.63;3.05;;;;;;;42.62;14.07;100098.31;5076830;28;20118;-48
2023/09/05 11:28:22;;;;;;;3.28;2.80;;;;;;;41.93;14.79;100104.31;5064104;28;20043;-53